KPUW/PUW METAR and TAF weather

Enter ICAO airport designator
Station Type Date Time Source
KPUW METAR 2019/02/16 17:17 UTC NOAA

KPUW 161717Z AUTO 08004KT 3/4SM -SN BR BKN019 OVC025 M01/M02 A2976 RMK AO2 P0001 T10111017


Station Type Date Time Source
KPUW Decoded METAR 2019/02/16 17:17 UTC NOAA

PULLMAN/MOSCOW RGNL AIRPORT , WA, United States (KPUW) 46-45N 117-07W 773M
Feb 16, 2019 - 12:17 PM EST / 2019.02.16 1717 UTC
Wind: from the E (080 degrees) at 5 MPH (4 KT):0
Visibility: 3/4 mile(s):0
Sky conditions: overcast
Weather: light snow; mist
Precipitation last hour: 0.01 inches
Temperature: 30.0 F (-1.1 C)
Windchill: 24 F (-4 C):1
Dew Point: 28.9 F (-1.7 C)
Relative Humidity: 95%
Pressure (altimeter): 29.76 in. Hg (1007 hPa)
ob: KPUW 161717Z AUTO 08004KT 3/4SM -SN BR BKN019 OVC025 M01/M02 A2976 RMK AO2 P0001 T10111017
cycle: 17

Station Type Date Time Source
KPUW TAF 2019/02/16 16:12 UTC NOAA

TAF
AMD KPUW 161610Z 1616/1712 09006KT P6SM VCSH SCT018 OVC028
TEMPO 1616/1620 2SM -SN BR BKN019 OVC025
FM162000 23005KT P6SM VCSH OVC020
FM170200 VRB03KT 3SM BR OVC005


Example: see airport list